Time;durP1;ratioP1;P1;durP2;ratioP2;P2;SDS_P1;SDS_P2;PMS_P1;PMS_P2;Temp;Humidity;BMP_temperature;BMP_pressure;BME280_temperature;BME280_humidity;BME280_pressure;Samples;Min_cycle;Max_cycle;Signal;HPM_P1;HPM_P2
2021/12/13 00:00:11;;;;;;;6.83;5.10;;;;;;;4.04;61.36;102042.22;4950275;29;20055;-84
2021/12/13 00:03:07;;;;;;;7.15;5.45;;;;;;;4.43;61.12;102091.53;4930929;29;20111;-83
2021/12/13 00:05:37;;;;;;;8.50;5.40;;;;;;;3.95;62.99;102023.31;4911187;29;20138;-82
2021/12/13 00:08:08;;;;;;;6.77;5.30;;;;;;;3.25;63.61;101924.41;4946165;28;20134;-83
2021/12/13 00:10:51;;;;;;;7.78;5.35;;;;;;;4.08;64.18;102058.72;4931107;29;20118;-83
2021/12/13 00:13:22;;;;;;;;;;;;;;;4.20;64.01;102088.91;4931642;29;20059;-85
2021/12/13 00:16:03;;;;;;;8.53;5.53;;;;;;;4.10;63.65;102061.28;4932934;28;19973;-84
2021/12/13 00:18:35;;;;;;;6.33;5.30;;;;;;;3.67;63.03;101984.13;4932287;29;20139;-83
2021/12/13 00:21:14;;;;;;;13.02;6.13;;;;;;;3.03;62.52;101862.22;4931015;29;20054;-83
2021/12/13 00:23:47;;;;;;;6.43;5.20;;;;;;;3.94;63.00;102014.56;4932298;29;20055;-81
2021/12/13 00:26:37;;;;;;;8.27;5.67;;;;;;;4.34;62.47;102070.00;4932425;29;20094;-85
2021/12/13 00:29:40;;;;;;;7.87;5.80;;;;;;;4.33;63.46;102063.03;4931766;29;20058;-86
2021/12/13 00:32:34;;;;;;;10.13;5.07;;;;;;;3.80;63.27;101980.09;4935035;29;20138;-82
2021/12/13 00:35:07;;;;;;;17.23;6.63;;;;;;;4.21;64.20;102051.22;4897439;29;20049;-83
2021/12/13 00:37:39;;;;;;;6.77;5.37;;;;;;;4.31;63.04;102067.50;4898551;29;20049;-83
2021/12/13 00:40:09;;;;;;;10.63;5.63;;;;;;;4.32;63.60;102059.56;4913488;29;20503;-86
2021/12/13 00:42:53;;;;;;;7.00;5.63;;;;;;;4.29;62.99;102051.75;4934762;29;20057;-82
2021/12/13 00:45:25;;;;;;;6.87;5.77;;;;;;;4.18;63.33;102022.44;4929803;29;20146;-82
2021/12/13 00:47:52;;;;;;;8.25;5.93;;;;;;;4.17;63.60;102026.81;4931713;29;20051;-81
2021/12/13 00:50:25;;;;;;;6.22;5.25;;;;;;;4.06;63.94;102008.84;4932934;29;20062;-85
2021/12/13 00:52:53;;;;;;;9.07;5.77;;;;;;;4.29;65.17;102057.88;4930221;29;20142;-85
2021/12/13 00:55:33;;;;;;;9.80;5.87;;;;;;;4.15;64.30;102061.97;4929106;29;20051;-84
2021/12/13 00:58:10;;;;;;;11.67;6.10;;;;;;;3.84;64.18;102029.00;4929006;29;20587;-84
2021/12/13 01:00:46;;;;;;;5.83;5.10;;;;;;;4.06;63.56;102058.78;4930566;29;20044;-82
2021/12/13 01:03:15;;;;;;;6.23;5.37;;;;;;;4.01;64.55;102052.84;4932160;29;20059;-82
2021/12/13 01:05:53;;;;;;;7.30;5.00;;;;;;;3.97;63.98;102051.25;4933069;29;20219;-82
2021/12/13 01:08:32;;;;;;;5.20;4.70;;;;;;;3.95;65.07;102052.22;4947468;28;20153;-84
2021/12/13 01:11:44;;;;;;;7.13;5.47;;;;;;;3.62;65.84;102013.19;4948503;28;20578;-82
2021/12/13 01:14:30;;;;;;;7.17;5.03;;;;;;;3.33;65.08;101964.38;4932313;28;20083;-83
2021/12/13 01:17:11;;;;;;;6.03;5.07;;;;;;;3.55;65.00;102012.53;4963491;28;20145;-83
2021/12/13 01:19:54;;;;;;;6.03;5.33;;;;;;;3.14;65.80;101938.78;4941430;28;20491;-83
2021/12/13 01:22:45;;;;;;;9.33;5.40;;;;;;;3.81;64.84;102066.75;4957448;28;20479;-81
2021/12/13 01:26:00;;;;;;;13.53;5.10;;;;;;;3.80;64.71;102057.13;4938512;29;20418;-82
2021/12/13 01:28:37;;;;;;;5.27;4.63;;;;;;;3.68;64.76;102033.09;4942241;28;20061;-83
2021/12/13 01:31:09;;;;;;;5.87;4.40;;;;;;;3.80;64.86;102058.91;4939974;28;20131;-84
2021/12/13 01:33:40;;;;;;;5.97;4.70;;;;;;;3.32;64.42;101989.75;4960249;28;20058;-85
2021/12/13 01:36:09;;;;;;;7.70;4.70;;;;;;;3.73;64.85;102062.69;4959276;28;20444;-82
2021/12/13 01:38:46;;;;;;;5.70;4.50;;;;;;;3.57;65.18;102042.25;4959547;28;20055;-81
2021/12/13 01:41:40;;;;;;;5.33;4.83;;;;;;;3.79;64.88;102068.56;4956923;28;20515;-82
2021/12/13 01:44:11;;;;;;;5.23;4.13;;;;;;;3.38;64.53;102002.66;4959868;28;20055;-82
2021/12/13 01:46:49;;;;;;;6.53;4.70;;;;;;;3.84;64.69;102068.41;4943366;28;20499;-83
2021/12/13 01:49:19;;;;;;;5.03;4.30;;;;;;;3.77;65.38;102048.53;4950643;28;20513;-80
2021/12/13 01:51:47;;;;;;;5.27;4.77;;;;;;;3.62;65.49;102032.41;4950942;28;20345;-83
2021/12/13 01:54:21;;;;;;;5.23;4.33;;;;;;;3.67;65.67;102036.66;4950689;28;20051;-83
2021/12/13 02:02:13;;;;;;;6.33;3.67;;;;;;;3.73;64.88;102063.53;4967830;28;20081;-81
2021/12/13 02:04:42;;;;;;;3.90;3.40;;;;;;;3.65;65.03;102055.09;4967108;28;20062;-84
2021/12/13 02:07:11;;;;;;;7.10;3.30;;;;;;;3.74;64.04;102070.50;4968076;28;20145;-83
2021/12/13 02:09:44;;;;;;;6.97;4.10;;;;;;;3.73;64.42;102044.28;4967379;28;20061;-83
2021/12/13 02:12:16;;;;;;;7.23;4.20;;;;;;;3.91;63.79;102063.75;4950921;28;20086;-82
2021/12/13 02:17:44;;;;;;;6.80;3.47;;;;;;;3.75;64.18;102055.59;4968932;28;20162;-84
2021/12/13 02:20:16;;;;;;;3.63;3.13;;;;;;;3.56;64.29;102022.13;4954406;28;20074;-82
2021/12/13 02:22:48;;;;;;;6.40;4.13;;;;;;;3.68;63.57;102043.59;4959618;28;20070;-83
2021/12/13 02:25:24;;;;;;;3.90;3.50;;;;;;;3.58;63.98;102017.69;4967338;28;20051;-84
2021/12/13 02:28:05;;;;;;;7.63;3.47;;;;;;;3.64;65.36;102043.72;4953662;29;20142;-83
2021/12/13 02:30:46;;;;;;;4.93;3.50;;;;;;;3.57;65.11;102029.09;4936464;29;20051;-84
2021/12/13 02:33:24;;;;;;;8.53;3.97;;;;;;;3.58;65.28;102036.06;4952346;28;20059;-82
2021/12/13 02:36:01;;;;;;;5.00;3.80;;;;;;;3.34;64.87;101997.56;4937328;29;20055;-83
2021/12/13 02:38:28;;;;;;;7.63;3.10;;;;;;;3.81;64.73;102074.63;4955568;29;20058;-83
2021/12/13 02:40:55;;;;;;;3.83;2.90;;;;;;;3.39;63.77;102000.88;4940912;29;20051;-83
2021/12/13 02:43:26;;;;;;;5.27;2.87;;;;;;;3.71;63.19;102039.06;4956461;29;20051;-83
2021/12/13 02:45:57;;;;;;;3.97;2.77;;;;;;;3.68;63.82;102023.44;4938196;29;20058;-83
2021/12/13 02:48:49;;;;;;;4.07;2.83;;;;;;;3.71;64.16;102017.22;4937363;29;20055;-84
2021/12/13 02:51:18;;;;;;;3.60;3.13;;;;;;;4.13;63.69;102066.44;4956774;29;20482;-82
2021/12/13 02:53:52;;;;;;;4.10;3.57;;;;;;;3.96;64.40;102033.78;4953937;29;20259;-83
2021/12/13 02:56:24;;;;;;;3.73;2.60;;;;;;;3.84;65.87;102029.00;4950642;28;20055;-81
2021/12/13 02:58:54;;;;;;;5.65;3.05;;;;;;;4.07;63.67;102057.84;4935183;29;20658;-85
2021/12/13 03:01:40;;;;;;;8.97;2.80;;;;;;;4.11;63.28;102060.38;4935289;29;20110;-81
2021/12/13 03:04:11;;;;;;;2.90;2.57;;;;;;;3.96;62.71;102054.78;4951097;29;20066;-82
2021/12/13 03:06:44;;;;;;;3.30;2.30;;;;;;;3.98;63.44;102037.22;4935126;29;20329;-85
2021/12/13 03:09:16;;;;;;;5.60;2.60;;;;;;;3.75;61.42;101982.03;4952240;29;20431;-83
2021/12/13 03:11:44;;;;;;;3.40;2.00;;;;;;;4.14;63.46;102055.84;4950616;28;20412;-82
2021/12/13 03:14:20;;;;;;;2.20;2.00;;;;;;;4.11;61.05;102057.75;4934481;29;20503;-82
2021/12/13 03:16:52;;;;;;;3.27;2.13;;;;;;;3.72;61.38;102004.03;4951791;29;20488;-83
2021/12/13 03:19:29;;;;;;;2.43;2.00;;;;;;;4.22;61.20;102087.09;4950598;29;20146;-82
2021/12/13 03:22:14;;;;;;;3.03;2.30;;;;;;;4.24;61.52;102086.13;4934400;29;20399;-80
2021/12/13 03:25:08;;;;;;;2.17;1.90;;;;;;;4.21;61.34;102091.50;4950487;28;20055;-82
2021/12/13 03:27:48;;;;;;;2.20;2.00;;;;;;;4.21;61.06;102083.63;4934510;29;20487;-84
2021/12/13 03:30:22;;;;;;;4.20;1.77;;;;;;;3.34;61.10;101939.81;4951027;28;20070;-81
2021/12/13 03:33:00;;;;;;;1.90;1.70;;;;;;;4.07;57.17;102057.00;4950078;28;20047;-83
2021/12/13 03:35:52;;;;;;;1.97;1.77;;;;;;;4.33;57.02;102052.50;4950948;29;20280;-83
2021/12/13 03:38:31;;;;;;;3.42;1.92;;;;;;;4.28;58.43;102050.06;4923652;29;20107;-83
2021/12/13 03:41:03;;;;;;;1.83;1.67;;;;;;;3.63;60.42;101970.25;4933932;29;20415;-83
2021/12/13 03:43:37;;;;;;;2.03;1.70;;;;;;;4.37;57.33;102065.47;4934010;29;20479;-84
2021/12/13 03:46:08;;;;;;;1.83;1.67;;;;;;;4.41;58.30;102068.84;4934280;29;20126;-84
2021/12/13 03:48:38;;;;;;;2.53;1.80;;;;;;;4.28;59.74;102050.91;4950003;28;20085;-81
2021/12/13 03:51:10;;;;;;;2.43;1.63;;;;;;;4.10;58.42;102019.22;4934244;29;20260;-83
2021/12/13 03:53:37;;;;;;;;;;;;;;;4.34;58.35;102065.56;4951790;29;20079;-83
2021/12/13 03:56:10;;;;;;;2.53;1.67;;;;;;;3.57;58.22;101937.19;4934066;29;19922;-84
2021/12/13 03:58:43;;;;;;;3.27;1.53;;;;;;;4.32;59.10;102067.44;4950915;29;20051;-82
2021/12/13 04:01:23;;;;;;;3.40;1.77;;;;;;;3.85;56.75;101975.53;4950688;29;20051;-83
2021/12/13 04:03:54;;;;;;;3.10;1.43;;;;;;;4.32;56.67;102042.91;4950107;28;20501;-82
2021/12/13 04:06:22;;;;;;;1.77;1.30;;;;;;;4.34;57.43;102054.22;4951173;29;20291;-81
2021/12/13 04:08:52;;;;;;;4.20;1.63;;;;;;;4.18;57.90;102019.81;4950719;29;20446;-82
2021/12/13 04:11:21;;;;;;;3.73;1.70;;;;;;;3.72;56.59;101934.91;4933826;29;20058;-83
2021/12/13 04:13:57;;;;;;;1.77;1.30;;;;;;;4.35;56.87;102040.16;4934110;29;20050;-82
2021/12/13 04:17:02;;;;;;;1.20;1.10;;;;;;;4.16;57.88;102011.97;4937103;29;20044;-84
2021/12/13 04:19:54;;;;;;;2.57;1.67;;;;;;;4.22;56.16;102035.41;4954149;28;20134;-82
2021/12/13 04:22:27;;;;;;;2.95;1.90;;;;;;;4.18;57.68;102022.44;4951390;29;20057;-81
2021/12/13 04:25:01;;;;;;;2.13;1.70;;;;;;;4.46;57.43;102057.19;4951225;29;20055;-84
2021/12/13 04:27:34;;;;;;;1.93;1.47;;;;;;;4.55;56.44;102020.94;4911377;29;20059;-82
2021/12/13 04:30:31;;;;;;;2.95;1.45;;;;;;;4.52;55.04;102008.78;4896511;29;20052;-83
2021/12/13 04:33:04;;;;;;;3.90;1.63;;;;;;;4.76;57.72;102056.91;4911732;29;20052;-83
2021/12/13 04:35:31;;;;;;;2.17;1.47;;;;;;;4.63;58.21;102060.94;4911696;29;20052;-83
2021/12/13 04:38:02;;;;;;;3.47;1.80;;;;;;;3.94;57.98;101956.78;4912948;29;20389;-84
2021/12/13 04:40:34;;;;;;;2.23;1.50;;;;;;;4.38;56.55;102035.63;4912563;29;20052;-84
2021/12/13 04:43:17;;;;;;;1.55;1.38;;;;;;;4.58;57.10;102061.13;4898021;29;20054;-84
2021/12/13 04:45:53;;;;;;;4.47;1.87;;;;;;;3.95;57.12;101962.88;4903871;29;20147;-81
2021/12/13 04:48:24;;;;;;;3.03;1.67;;;;;;;3.84;56.23;101951.03;4916308;29;20514;-81
2021/12/13 04:51:13;;;;;;;5.30;1.87;;;;;;;4.38;57.45;102040.88;4917142;29;20111;-82
2021/12/13 04:53:47;;;;;;;2.80;1.70;;;;;;;4.31;57.28;102042.03;4918029;29;20051;-83
2021/12/13 04:56:21;;;;;;;4.70;1.63;;;;;;;4.54;56.29;102077.06;4918341;29;20052;-83
2021/12/13 04:58:50;;;;;;;2.70;1.40;;;;;;;4.51;57.29;102072.81;4935254;29;20051;-85
2021/12/13 05:01:19;;;;;;;3.47;1.40;;;;;;;4.22;58.83;102031.88;4935212;29;20446;-82
2021/12/13 05:03:53;;;;;;;2.27;1.90;;;;;;;4.43;58.89;102075.75;4953304;29;20059;-82
2021/12/13 05:06:25;;;;;;;2.67;1.60;;;;;;;4.38;59.60;102077.69;4934726;29;20114;-83
2021/12/13 05:08:56;;;;;;;1.27;1.17;;;;;;;4.06;57.49;102024.63;4948624;28;20114;-82
2021/12/13 05:11:33;;;;;;;2.15;1.45;;;;;;;4.23;59.76;102073.91;4948868;29;20159;-80
2021/12/13 05:14:04;;;;;;;3.03;1.67;;;;;;;4.09;59.83;102059.59;4948263;28;20406;-82
2021/12/13 05:16:58;;;;;;;2.63;1.30;;;;;;;4.24;59.27;102104.50;4932271;29;20131;-81
2021/12/13 05:19:29;;;;;;;1.70;1.30;;;;;;;4.27;59.92;102095.66;4947438;29;20055;-81
2021/12/13 05:21:58;;;;;;;2.67;1.80;;;;;;;4.21;60.18;102080.13;4948631;29;20102;-84
2021/12/13 05:24:30;;;;;;;2.07;1.77;;;;;;;3.86;59.99;102032.41;4949301;29;20087;-82
2021/12/13 05:26:59;;;;;;;1.48;1.38;;;;;;;4.18;60.43;102093.41;4916862;29;20051;-82
2021/12/13 05:29:42;;;;;;;1.83;1.63;;;;;;;3.85;59.46;102047.31;4928953;29;20650;-82
2021/12/13 05:32:20;;;;;;;3.00;1.53;;;;;;;3.49;58.58;101986.50;4913623;29;20428;-83
2021/12/13 05:34:46;;;;;;;1.90;1.60;;;;;;;4.12;60.48;102091.00;4929141;29;20139;-81
2021/12/13 05:37:14;;;;;;;1.70;1.33;;;;;;;4.01;61.37;102084.38;4930017;29;20066;-82
2021/12/13 05:40:09;;;;;;;8.67;2.60;;;;;;;4.01;60.42;102084.38;4929323;29;20059;-82
2021/12/13 05:42:46;;;;;;;2.83;1.97;;;;;;;3.78;60.98;102053.69;4913438;29;20075;-82
2021/12/13 05:45:17;;;;;;;9.83;3.60;;;;;;;4.13;59.49;102100.59;4912951;29;20102;-83
2021/12/13 05:47:57;;;;;;;12.07;3.33;;;;;;;4.10;59.22;102090.19;4913464;29;20313;-83
2021/12/13 05:50:50;;;;;;;6.40;2.57;;;;;;;3.88;60.39;102061.25;4912947;29;20239;-82
2021/12/13 05:53:27;;;;;;;9.03;2.80;;;;;;;3.96;60.47;102070.56;4912216;29;20091;-82
2021/12/13 05:56:00;;;;;;;14.70;3.27;;;;;;;3.49;58.93;101997.00;4911645;29;20146;-84
2021/12/13 05:58:53;;;;;;;9.43;3.40;;;;;;;3.86;61.32;102066.56;4911591;29;20571;-82
2021/12/13 06:01:28;;;;;;;10.67;3.33;;;;;;;3.58;61.62;102012.41;4911505;29;20060;-83
2021/12/13 06:04:06;;;;;;;13.10;3.43;;;;;;;4.09;63.39;102110.38;4947086;28;20061;-83
2021/12/13 06:06:53;;;;;;;7.77;2.27;;;;;;;3.82;60.54;102067.59;4946889;29;20134;-82
2021/12/13 06:09:41;;;;;;;6.77;3.30;;;;;;;4.09;60.12;102101.63;4931054;29;20051;-83
2021/12/13 06:12:23;;;;;;;6.50;3.20;;;;;;;4.11;62.08;102099.81;4931044;29;20055;-83
2021/12/13 06:14:51;;;;;;;7.77;3.10;;;;;;;4.10;62.67;102098.06;4930713;29;20150;-82
2021/12/13 06:17:30;;;;;;;7.70;3.43;;;;;;;4.07;63.04;102093.78;4933993;29;20123;-84
2021/12/13 06:19:59;;;;;;;10.10;3.10;;;;;;;4.03;61.78;102103.59;4945952;29;20135;-83
2021/12/13 06:22:28;;;;;;;3.90;3.10;;;;;;;3.91;61.33;102074.25;4946158;29;20523;-81
2021/12/13 06:25:12;;;;;;;8.57;3.10;;;;;;;3.87;60.84;102064.78;4962262;28;20047;-84
2021/12/13 06:27:55;;;;;;;13.83;3.77;;;;;;;3.19;61.24;101947.34;4911653;29;20060;-85
2021/12/13 06:30:33;;;;;;;12.27;3.63;;;;;;;4.05;62.76;102086.00;4911437;29;20613;-84
2021/12/13 06:33:07;;;;;;;7.50;3.83;;;;;;;4.01;62.62;102079.13;4927295;29;20094;-84
2021/12/13 06:35:39;;;;;;;5.17;3.60;;;;;;;4.10;63.66;102092.81;4943766;28;20117;-82
2021/12/13 06:38:30;;;;;;;10.73;3.23;;;;;;;4.07;62.70;102089.38;4946222;29;20051;-83
2021/12/13 06:41:28;;;;;;;10.87;3.87;;;;;;;4.06;61.98;102092.94;4947667;29;20090;-82
2021/12/13 06:43:59;;;;;;;12.00;4.67;;;;;;;3.86;62.41;102071.81;4947802;29;20364;-82
2021/12/13 06:46:26;;;;;;;10.02;3.30;;;;;;;4.03;63.06;102094.84;4947330;29;20055;-85
2021/12/13 06:49:05;;;;;;;10.20;3.47;;;;;;;4.01;63.73;102104.56;4947853;29;20085;-83
2021/12/13 06:51:58;;;;;;;14.67;3.83;;;;;;;4.00;63.75;102108.94;4946824;28;20181;-84
2021/12/13 06:54:27;;;;;;;16.47;5.83;;;;;;;3.70;62.80;102026.88;4931446;29;20110;-83
2021/12/13 06:57:06;;;;;;;9.67;5.00;;;;;;;3.88;62.77;102069.97;4949190;29;20212;-83
2021/12/13 06:59:46;;;;;;;13.43;4.90;;;;;;;3.45;62.56;101990.19;4930496;29;20055;-83
2021/12/13 07:02:18;;;;;;;7.33;5.07;;;;;;;4.15;62.97;102111.91;4930850;29;20147;-83
2021/12/13 07:04:56;;;;;;;12.83;6.00;;;;;;;3.61;62.61;102011.44;4947566;28;20062;-84
2021/12/13 07:07:59;;;;;;;12.80;5.97;;;;;;;4.15;63.10;102106.63;4950157;29;20138;-84
2021/12/13 07:10:51;;;;;;;13.77;3.73;;;;;;;4.13;62.89;102104.09;4929181;29;20075;-85
2021/12/13 07:13:37;;;;;;;7.23;4.00;;;;;;;4.15;62.69;102104.00;4935229;29;20055;-83
2021/12/13 07:16:12;;;;;;;5.87;3.70;;;;;;;4.16;63.85;102105.75;4933687;29;20187;-85
2021/12/13 07:18:41;;;;;;;5.43;3.50;;;;;;;3.70;63.19;102026.03;4950406;29;20055;-83
2021/12/13 07:21:13;;;;;;;10.57;4.47;;;;;;;4.14;62.91;102097.91;4934106;29;20055;-81
2021/12/13 07:24:04;;;;;;;8.43;4.50;;;;;;;4.14;62.62;102090.03;4934165;29;20500;-82
2021/12/13 07:26:33;;;;;;;8.30;3.43;;;;;;;4.18;63.78;102101.28;4951330;29;20391;-81
2021/12/13 07:29:02;;;;;;;11.47;4.30;;;;;;;4.13;63.74;102083.06;4934685;29;20062;-81
2021/12/13 07:31:29;;;;;;;8.03;3.67;;;;;;;3.32;63.20;101952.16;4933925;29;20154;-82
2021/12/13 07:34:07;;;;;;;9.77;3.70;;;;;;;3.93;62.72;102059.28;4932664;29;20090;-85
2021/12/13 07:36:34;;;;;;;13.97;3.87;;;;;;;2.44;62.99;101811.06;4949507;29;20057;-83
2021/12/13 07:39:07;;;;;;;11.63;3.70;;;;;;;3.88;59.57;102054.22;4949825;29;20736;-80
2021/12/13 07:41:59;;;;;;;12.00;3.17;;;;;;;4.25;59.27;102092.25;4932825;29;20530;-84
2021/12/13 07:44:36;;;;;;;7.87;3.37;;;;;;;4.22;60.95;102077.47;4932914;29;20048;-83
2021/12/13 07:47:18;;;;;;;15.37;4.40;;;;;;;4.49;60.65;102117.59;4948434;29;20055;-85
2021/12/13 07:49:49;;;;;;;7.25;3.97;;;;;;;4.53;59.71;102101.69;4950679;29;20059;-82
2021/12/13 07:52:42;;;;;;;10.27;3.57;;;;;;;4.53;59.87;102096.41;4950448;29;20047;-84
2021/12/13 07:55:20;;;;;;;10.47;4.10;;;;;;;4.15;61.25;102030.41;4930181;29;20102;-81
2021/12/13 07:57:46;;;;;;;14.07;3.77;;;;;;;4.70;58.36;102125.53;4950291;29;20411;-82
2021/12/13 08:00:22;;;;;;;13.97;4.10;;;;;;;4.60;57.94;102111.88;4949343;28;20095;-81
2021/12/13 08:02:56;;;;;;;10.00;4.33;;;;;;;4.80;57.06;102141.81;4949061;28;20485;-81
2021/12/13 08:05:29;;;;;;;8.90;3.93;;;;;;;4.74;56.88;102136.81;4949476;29;20055;-82
2021/12/13 08:08:00;;;;;;;11.30;4.25;;;;;;;4.88;57.14;102135.34;4933373;29;20729;-82
2021/12/13 08:10:34;;;;;;;15.33;4.57;;;;;;;4.60;58.08;102108.41;4949470;29;20047;-81
2021/12/13 08:13:26;;;;;;;9.10;3.80;;;;;;;4.60;58.24;102117.16;4949156;29;20483;-82
2021/12/13 08:16:07;;;;;;;7.33;4.27;;;;;;;4.81;59.53;102152.28;4925392;29;20047;-82
2021/12/13 08:18:42;;;;;;;7.97;4.50;;;;;;;4.74;58.55;102148.19;4948967;29;20083;-83
2021/12/13 08:21:23;;;;;;;8.67;4.60;;;;;;;4.79;59.59;102159.38;4933426;29;20051;-83
2021/12/13 08:23:59;;;;;;;9.43;4.97;;;;;;;4.79;59.52;102166.41;4933144;29;20047;-81
2021/12/13 08:26:34;;;;;;;14.50;4.40;;;;;;;4.72;59.88;102142.13;4945839;29;20052;-82
2021/12/13 08:29:08;;;;;;;6.60;4.47;;;;;;;4.59;60.06;102133.00;4945669;29;20055;-81
2021/12/13 08:31:39;;;;;;;10.20;4.03;;;;;;;4.82;60.57;102166.28;4932626;29;20566;-82
2021/12/13 08:34:15;;;;;;;7.63;4.47;;;;;;;4.62;61.08;102135.50;4932409;29;20043;-82
2021/12/13 08:36:47;;;;;;;6.97;4.30;;;;;;;4.64;61.32;102117.91;4949570;29;20051;-82
2021/12/13 08:39:19;;;;;;;8.77;4.50;;;;;;;4.85;61.03;102143.31;4950169;29;20138;-79
2021/12/13 08:41:51;;;;;;;9.67;4.53;;;;;;;5.00;60.18;102176.09;4948380;28;20090;-83
2021/12/13 08:44:31;;;;;;;9.02;4.53;;;;;;;5.10;59.88;102176.56;4948969;28;20098;-81
2021/12/13 08:47:03;;;;;;;12.68;4.90;;;;;;;5.07;60.36;102152.97;4950289;29;20074;-83
2021/12/13 08:49:29;;;;;;;7.10;5.82;;;;;;;5.12;60.39;102153.66;4947582;29;20047;-84
2021/12/13 08:52:13;;;;;;;8.87;4.80;;;;;;;5.33;61.21;102170.34;4946091;28;20073;-83
2021/12/13 08:55:12;;;;;;;9.10;5.15;;;;;;;5.07;60.29;102118.75;4947243;28;20672;-82
2021/12/13 08:57:45;;;;;;;12.57;5.10;;;;;;;5.53;60.16;102185.31;4921145;29;20055;-82
2021/12/13 09:00:12;;;;;;;8.10;4.53;;;;;;;5.61;59.95;102183.22;4947765;29;20087;-83
2021/12/13 09:02:43;;;;;;;8.50;4.32;;;;;;;5.72;58.58;102172.19;4949785;29;20102;-82
2021/12/13 09:05:17;;;;;;;7.05;4.15;;;;;;;5.75;57.91;102165.03;4933294;29;20109;-82
2021/12/13 09:07:55;;;;;;;9.82;4.45;;;;;;;5.74;56.75;102131.69;4931432;29;20408;-83
2021/12/13 09:10:38;;;;;;;7.75;3.67;;;;;;;6.26;53.17;102204.13;4932525;29;20076;-84
2021/12/13 09:13:05;;;;;;;6.05;3.03;;;;;;;6.26;52.99;102175.09;4931841;29;20051;-85
2021/12/13 09:15:34;;;;;;;10.65;4.13;;;;;;;6.46;55.28;102198.81;4948756;29;20097;-83
2021/12/13 09:18:03;;;;;;;5.50;2.80;;;;;;;6.00;53.34;102100.69;4934976;29;20087;-83
2021/12/13 09:20:43;;;;;;;2.75;2.13;;;;;;;6.47;50.43;102163.56;4951774;29;20047;-82
2021/12/13 09:23:12;;;;;;;6.13;2.25;;;;;;;6.78;50.27;102193.81;4932380;29;20228;-81
2021/12/13 09:25:43;;;;;;;9.35;3.03;;;;;;;6.84;49.94;102198.78;4939965;29;20072;-81
2021/12/13 09:28:12;;;;;;;10.57;2.37;;;;;;;6.91;49.36;102200.19;4907660;29;20055;-82
2021/12/13 09:30:45;;;;;;;5.45;3.20;;;;;;;6.98;51.62;102201.59;4893243;29;20367;-83
2021/12/13 09:33:17;;;;;;;6.65;3.30;;;;;;;7.07;53.44;102202.97;4893497;29;20091;-84
2021/12/13 09:35:53;;;;;;;6.13;3.78;;;;;;;6.57;52.58;102112.06;4908254;29;20245;-83
2021/12/13 09:38:42;;;;;;;5.70;3.55;;;;;;;7.19;51.93;102198.88;4908254;29;20060;-81
2021/12/13 09:41:09;;;;;;;3.30;2.92;;;;;;;7.28;53.50;102201.03;4924130;29;20059;-82
2021/12/13 09:43:46;;;;;;;6.43;2.85;;;;;;;7.27;50.61;102176.41;4914872;29;20051;-82
2021/12/13 09:46:19;;;;;;;9.20;2.90;;;;;;;7.10;50.26;102122.72;4946469;29;20560;-81
2021/12/13 09:48:52;;;;;;;6.13;3.45;;;;;;;7.52;50.55;102191.03;4946801;29;20130;-82
2021/12/13 09:51:29;;;;;;;6.63;2.60;;;;;;;7.05;50.27;102101.81;4930361;29;20506;-84
2021/12/13 09:53:59;;;;;;;5.95;2.65;;;;;;;7.60;49.85;102190.66;4946299;29;20145;-82
2021/12/13 09:56:32;;;;;;;6.03;2.70;;;;;;;7.61;49.99;102184.44;4946710;29;20287;-83
2021/12/13 09:59:06;;;;;;;4.35;3.05;;;;;;;7.75;49.02;102189.84;4946703;29;20141;-83
2021/12/13 10:01:40;;;;;;;8.02;3.08;;;;;;;7.78;49.60;102176.47;4950421;28;20094;-81
2021/12/13 10:04:41;;;;;;;5.35;3.05;;;;;;;7.79;49.89;102178.19;4951288;28;20508;-82
2021/12/13 10:07:21;;;;;;;7.03;4.28;;;;;;;7.10;47.84;102061.97;4966783;28;20051;-84
2021/12/13 10:10:17;;;;;;;7.45;2.92;;;;;;;7.52;46.30;102110.91;4932975;29;20466;-81
2021/12/13 10:12:56;;;;;;;6.43;3.00;;;;;;;7.53;46.84;102094.13;4929879;29;20066;-83
2021/12/13 10:15:32;;;;;;;7.15;2.95;;;;;;;7.85;46.97;102135.56;4930609;28;20130;-81
2021/12/13 10:18:09;;;;;;;6.57;2.72;;;;;;;8.00;46.11;102140.97;4930075;28;20107;-82
2021/12/13 10:20:49;;;;;;;10.57;2.53;;;;;;;7.34;44.20;102021.09;4947613;28;20492;-81
2021/12/13 10:23:23;;;;;;;4.97;1.92;;;;;;;8.23;43.97;102160.88;4960740;28;20138;-83
2021/12/13 10:25:54;;;;;;;4.95;2.15;;;;;;;8.04;44.17;102124.00;4930865;28;20059;-82
2021/12/13 10:28:25;;;;;;;8.27;2.58;;;;;;;8.37;43.15;102162.78;4932389;28;20055;-81
2021/12/13 10:31:00;;;;;;;4.75;2.70;;;;;;;8.32;43.16;102133.91;4947902;28;20149;-81
2021/12/13 10:33:28;;;;;;;2.95;2.40;;;;;;;8.50;43.09;102148.84;4947603;28;20051;-82
2021/12/13 10:36:01;;;;;;;4.35;2.83;;;;;;;8.37;42.51;102120.44;4930321;28;20138;-82
2021/12/13 10:38:38;;;;;;;3.55;2.80;;;;;;;8.64;41.63;102153.38;4947272;28;20150;-82
2021/12/13 10:41:11;;;;;;;2.92;2.53;;;;;;;8.61;41.96;102137.63;4950023;28;20059;-81
2021/12/13 10:43:45;;;;;;;4.18;2.50;;;;;;;8.74;42.96;102145.75;4934153;29;20563;-82
2021/12/13 10:46:18;;;;;;;8.75;2.92;;;;;;;8.80;43.29;102149.84;4934300;29;20055;-82
2021/12/13 10:48:48;;;;;;;4.28;2.50;;;;;;;8.85;42.27;102142.47;4934084;29;20055;-80
2021/12/13 10:51:28;;;;;;;2.45;2.25;;;;;;;8.99;42.35;102151.34;4933857;29;20455;-83
2021/12/13 10:53:58;;;;;;;3.55;2.20;;;;;;;9.18;41.50;102152.94;4949603;28;20373;-80
2021/12/13 10:56:30;;;;;;;2.45;2.25;;;;;;;9.40;41.16;102148.06;4949747;28;20574;-80
2021/12/13 10:59:02;;;;;;;4.88;2.85;;;;;;;9.48;41.02;102129.06;4933736;29;20137;-81
2021/12/13 11:01:39;;;;;;;6.30;2.40;;;;;;;9.47;41.73;102108.81;4950186;29;20146;-81
2021/12/13 11:04:11;;;;;;;3.85;2.60;;;;;;;9.57;40.62;102115.25;4947545;28;20577;-81
2021/12/13 11:06:40;;;;;;;5.25;2.70;;;;;;;8.19;40.65;101889.53;4953414;28;20126;-82
2021/12/13 11:09:11;;;;;;;4.45;2.78;;;;;;;9.56;39.70;102120.63;4955422;28;20115;-82
2021/12/13 11:11:46;;;;;;;4.28;2.05;;;;;;;9.70;39.19;102138.38;4952052;28;20170;-82
2021/12/13 11:14:17;;;;;;;4.07;2.42;;;;;;;9.69;41.07;102132.22;4951638;29;20566;-82
2021/12/13 11:16:48;;;;;;;4.60;2.50;;;;;;;9.62;39.37;102121.13;4949799;28;20065;-82
2021/12/13 11:19:22;;;;;;;2.80;2.00;;;;;;;9.38;38.46;102078.41;4934254;28;20055;-82
2021/12/13 11:21:52;;;;;;;2.95;2.33;;;;;;;9.08;39.56;102033.41;4950464;28;20483;-82
2021/12/13 11:24:23;;;;;;;4.72;2.50;;;;;;;9.66;39.98;102126.22;4933874;29;20051;-81
2021/12/13 11:26:55;;;;;;;6.05;2.35;;;;;;;9.63;39.26;102122.81;4950555;28;20065;-84
2021/12/13 11:29:46;;;;;;;;;;;;;;;;;;;;;
2021/12/13 11:32:57;;;;;;;5.20;2.13;;;;;;;9.31;40.23;102061.16;4952177;28;20150;-80
2021/12/13 11:36:05;;;;;;;3.42;2.15;;;;;;;9.55;38.61;102111.00;4953116;28;20142;-81
2021/12/13 11:39:19;;;;;;;2.53;2.10;;;;;;;9.50;39.78;102107.75;4953895;28;20051;-79
2021/12/13 11:41:58;;;;;;;2.95;1.90;;;;;;;9.39;41.32;102085.41;4953812;28;20059;-82
2021/12/13 11:44:39;;;;;;;2.85;1.95;;;;;;;8.67;38.95;101970.50;4953086;28;20114;-81
2021/12/13 11:47:33;;;;;;;6.53;2.00;;;;;;;9.52;38.49;102106.72;4948773;28;20578;-83
2021/12/13 11:50:14;;;;;;;2.53;1.60;;;;;;;9.51;39.38;102101.50;4948742;29;20138;-82
2021/12/13 11:53:19;;;;;;;2.30;1.85;;;;;;;9.49;39.18;102091.00;4948265;28;20082;-83
2021/12/13 11:56:25;;;;;;;2.08;1.88;;;;;;;9.52;38.78;102101.44;4948557;28;20051;-82
2021/12/13 11:59:20;;;;;;;2.42;1.73;;;;;;;9.55;39.01;102085.31;4938609;28;20051;-83
2021/12/13 12:02:02;;;;;;;2.70;2.00;;;;;;;9.55;39.06;102079.19;4948093;28;20063;-83
2021/12/13 12:05:05;;;;;;;3.10;2.00;;;;;;;9.55;40.04;102080.03;4937399;29;20070;-85
2021/12/13 12:07:51;;;;;;;2.72;2.33;;;;;;;9.57;40.72;102075.47;4949085;29;20102;-83
2021/12/13 12:10:53;;;;;;;4.25;1.88;;;;;;;9.59;40.33;102070.94;4949953;28;20495;-83
2021/12/13 12:13:52;;;;;;;3.60;2.58;;;;;;;9.61;39.43;102078.78;4936754;29;20475;-82
2021/12/13 12:16:24;;;;;;;5.35;2.40;;;;;;;9.60;40.06;102075.28;4948517;29;20059;-85
2021/12/13 12:18:53;;;;;;;2.85;2.05;;;;;;;8.85;40.37;101946.50;4946718;29;20079;-82
2021/12/13 12:21:43;;;;;;;2.50;2.13;;;;;;;9.55;40.76;102074.72;4947285;29;20059;-82
2021/12/13 12:24:23;;;;;;;2.65;1.95;;;;;;;9.33;39.43;102031.91;4944236;29;20178;-81
2021/12/13 12:27:20;;;;;;;2.88;1.90;;;;;;;9.59;39.70;102078.06;4926981;29;20353;-81
2021/12/13 12:29:53;;;;;;;4.15;2.20;;;;;;;9.55;39.83;102066.75;4911874;29;20135;-81